sensor_id;sensor_type;location;lat;lon;timestamp;P1;durP1;ratioP1;P2;durP2;ratioP2
28455;SDS011;15682;56.742;38.866;2022-10-13T00:00:47;9.8;;;4.3;;
28455;SDS011;15682;56.742;38.866;2022-10-13T00:02:47;12.2;;;4.3;;
28455;SDS011;15682;56.742;38.866;2022-10-13T00:04:47;9.9;;;4.2;;
28455;SDS011;15682;56.742;38.866;2022-10-13T00:06:47;9.7;;;4.3;;
28455;SDS011;15682;56.742;38.866;2022-10-13T00:08:48;11.6;;;4.3;;
28455;SDS011;15682;56.742;38.866;2022-10-13T00:10:47;9.1;;;4.6;;
28455;SDS011;15682;56.742;38.866;2022-10-13T00:12:47;10.5;;;4.2;;
28455;SDS011;15682;56.742;38.866;2022-10-13T00:14:47;10.6;;;4.2;;
28455;SDS011;15682;56.742;38.866;2022-10-13T00:16:47;13.4;;;4.3;;
28455;SDS011;15682;56.742;38.866;2022-10-13T00:18:48;11.7;;;4.4;;
28455;SDS011;15682;56.742;38.866;2022-10-13T00:20:48;11.2;;;3.9;;
28455;SDS011;15682;56.742;38.866;2022-10-13T00:22:47;11.1;;;4.3;;
28455;SDS011;15682;56.742;38.866;2022-10-13T00:24:49;11.6;;;4.3;;
28455;SDS011;15682;56.742;38.866;2022-10-13T00:26:48;10.1;;;4.5;;
28455;SDS011;15682;56.742;38.866;2022-10-13T00:28:48;11.0;;;4.6;;
28455;SDS011;15682;56.742;38.866;2022-10-13T00:30:48;11.6;;;4.5;;
28455;SDS011;15682;56.742;38.866;2022-10-13T00:32:48;12.8;;;4.6;;
28455;SDS011;15682;56.742;38.866;2022-10-13T00:34:48;10.0;;;4.3;;
28455;SDS011;15682;56.742;38.866;2022-10-13T00:36:48;9.4;;;4.2;;
28455;SDS011;15682;56.742;38.866;2022-10-13T00:38:48;12.1;;;4.5;;
28455;SDS011;15682;56.742;38.866;2022-10-13T00:40:49;8.7;;;4.1;;
28455;SDS011;15682;56.742;38.866;2022-10-13T00:42:48;9.6;;;4.3;;
28455;SDS011;15682;56.742;38.866;2022-10-13T00:44:57;9.9;;;4.4;;
28455;SDS011;15682;56.742;38.866;2022-10-13T00:46:48;11.7;;;4.5;;
28455;SDS011;15682;56.742;38.866;2022-10-13T00:48:48;9.5;;;4.4;;
28455;SDS011;15682;56.742;38.866;2022-10-13T00:50:48;10.5;;;4.5;;
28455;SDS011;15682;56.742;38.866;2022-10-13T00:52:48;10.4;;;4.4;;
28455;SDS011;15682;56.742;38.866;2022-10-13T00:54:48;12.4;;;4.6;;
28455;SDS011;15682;56.742;38.866;2022-10-13T00:56:49;13.1;;;4.4;;
28455;SDS011;15682;56.742;38.866;2022-10-13T00:58:49;10.7;;;4.4;;
28455;SDS011;15682;56.742;38.866;2022-10-13T01:00:49;9.4;;;4.5;;
28455;SDS011;15682;56.742;38.866;2022-10-13T01:02:49;11.1;;;4.3;;
28455;SDS011;15682;56.742;38.866;2022-10-13T01:04:49;10.0;;;4.1;;
28455;SDS011;15682;56.742;38.866;2022-10-13T01:06:49;9.7;;;4.3;;
28455;SDS011;15682;56.742;38.866;2022-10-13T01:08:49;12.6;;;4.7;;
28455;SDS011;15682;56.742;38.866;2022-10-13T01:10:52;8.2;;;4.0;;
28455;SDS011;15682;56.742;38.866;2022-10-13T01:12:51;10.2;;;4.3;;
28455;SDS011;15682;56.742;38.866;2022-10-13T01:14:52;9.7;;;4.0;;
28455;SDS011;15682;56.742;38.866;2022-10-13T01:16:51;10.5;;;3.9;;
28455;SDS011;15682;56.742;38.866;2022-10-13T01:18:50;13.6;;;4.0;;
28455;SDS011;15682;56.742;38.866;2022-10-13T01:20:52;9.3;;;4.1;;
28455;SDS011;15682;56.742;38.866;2022-10-13T01:22:54;13.2;;;4.4;;
28455;SDS011;15682;56.742;38.866;2022-10-13T01:24:51;9.1;;;4.2;;
28455;SDS011;15682;56.742;38.866;2022-10-13T01:28:54;7.9;;;3.6;;
28455;SDS011;15682;56.742;38.866;2022-10-13T01:30:50;10.9;;;3.7;;
28455;SDS011;15682;56.742;38.866;2022-10-13T01:33:00;9.4;;;3.7;;
28455;SDS011;15682;56.742;38.866;2022-10-13T01:34:51;11.3;;;3.6;;
28455;SDS011;15682;56.742;38.866;2022-10-13T01:36:52;11.5;;;3.8;;
28455;SDS011;15682;56.742;38.866;2022-10-13T01:38:51;10.7;;;3.8;;
28455;SDS011;15682;56.742;38.866;2022-10-13T01:40:51;7.3;;;3.7;;
28455;SDS011;15682;56.742;38.866;2022-10-13T01:42:52;9.5;;;3.7;;
28455;SDS011;15682;56.742;38.866;2022-10-13T01:44:51;11.2;;;3.9;;
28455;SDS011;15682;56.742;38.866;2022-10-13T01:46:50;9.4;;;3.7;;
28455;SDS011;15682;56.742;38.866;2022-10-13T01:48:51;12.8;;;3.7;;
28455;SDS011;15682;56.742;38.866;2022-10-13T01:50:51;10.1;;;3.8;;
28455;SDS011;15682;56.742;38.866;2022-10-13T01:52:50;7.8;;;3.8;;
28455;SDS011;15682;56.742;38.866;2022-10-13T01:54:51;8.3;;;3.3;;
28455;SDS011;15682;56.742;38.866;2022-10-13T01:56:51;10.6;;;3.8;;
28455;SDS011;15682;56.742;38.866;2022-10-13T01:58:50;10.4;;;4.0;;
28455;SDS011;15682;56.742;38.866;2022-10-13T02:00:54;8.7;;;3.5;;
28455;SDS011;15682;56.742;38.866;2022-10-13T02:02:54;10.2;;;3.7;;
28455;SDS011;15682;56.742;38.866;2022-10-13T02:04:52;9.4;;;3.6;;
28455;SDS011;15682;56.742;38.866;2022-10-13T02:06:52;8.8;;;3.6;;
28455;SDS011;15682;56.742;38.866;2022-10-13T02:08:54;8.2;;;3.6;;
28455;SDS011;15682;56.742;38.866;2022-10-13T02:10:51;10.0;;;3.8;;
28455;SDS011;15682;56.742;38.866;2022-10-13T02:12:52;8.9;;;3.6;;
28455;SDS011;15682;56.742;38.866;2022-10-13T02:14:51;9.0;;;3.5;;
28455;SDS011;15682;56.742;38.866;2022-10-13T02:16:51;11.0;;;3.8;;
28455;SDS011;15682;56.742;38.866;2022-10-13T02:18:51;8.7;;;3.5;;
28455;SDS011;15682;56.742;38.866;2022-10-13T02:20:51;8.4;;;3.4;;
28455;SDS011;15682;56.742;38.866;2022-10-13T02:22:53;11.4;;;3.3;;
28455;SDS011;15682;56.742;38.866;2022-10-13T02:24:51;8.0;;;3.5;;
28455;SDS011;15682;56.742;38.866;2022-10-13T02:26:52;9.7;;;3.4;;
28455;SDS011;15682;56.742;38.866;2022-10-13T02:28:51;8.7;;;3.2;;
28455;SDS011;15682;56.742;38.866;2022-10-13T02:30:52;8.9;;;3.4;;
28455;SDS011;15682;56.742;38.866;2022-10-13T02:32:52;8.2;;;3.2;;
28455;SDS011;15682;56.742;38.866;2022-10-13T02:34:52;9.5;;;3.5;;
28455;SDS011;15682;56.742;38.866;2022-10-13T02:36:52;7.2;;;3.3;;
28455;SDS011;15682;56.742;38.866;2022-10-13T02:38:52;8.6;;;3.3;;
28455;SDS011;15682;56.742;38.866;2022-10-13T02:40:52;7.3;;;2.9;;
28455;SDS011;15682;56.742;38.866;2022-10-13T02:42:52;6.9;;;3.1;;
28455;SDS011;15682;56.742;38.866;2022-10-13T02:44:52;9.5;;;3.0;;
28455;SDS011;15682;56.742;38.866;2022-10-13T02:46:52;10.0;;;3.0;;
28455;SDS011;15682;56.742;38.866;2022-10-13T02:48:52;8.5;;;2.8;;
28455;SDS011;15682;56.742;38.866;2022-10-13T02:50:52;9.5;;;3.0;;
28455;SDS011;15682;56.742;38.866;2022-10-13T02:52:52;7.5;;;3.0;;
28455;SDS011;15682;56.742;38.866;2022-10-13T02:54:52;8.5;;;2.9;;
28455;SDS011;15682;56.742;38.866;2022-10-13T02:56:53;8.3;;;2.7;;
28455;SDS011;15682;56.742;38.866;2022-10-13T02:58:53;7.7;;;2.6;;
28455;SDS011;15682;56.742;38.866;2022-10-13T03:00:53;9.0;;;3.2;;
28455;SDS011;15682;56.742;38.866;2022-10-13T03:02:53;10.9;;;2.7;;
28455;SDS011;15682;56.742;38.866;2022-10-13T03:04:53;7.0;;;3.0;;
28455;SDS011;15682;56.742;38.866;2022-10-13T03:06:53;8.7;;;2.9;;
28455;SDS011;15682;56.742;38.866;2022-10-13T03:08:53;10.4;;;2.9;;
28455;SDS011;15682;56.742;38.866;2022-10-13T03:10:53;7.0;;;2.8;;
28455;SDS011;15682;56.742;38.866;2022-10-13T03:12:53;7.9;;;2.8;;
28455;SDS011;15682;56.742;38.866;2022-10-13T03:14:53;7.5;;;3.0;;
28455;SDS011;15682;56.742;38.866;2022-10-13T03:16:55;8.1;;;2.9;;
28455;SDS011;15682;56.742;38.866;2022-10-13T03:18:53;8.1;;;2.9;;
28455;SDS011;15682;56.742;38.866;2022-10-13T03:20:54;6.0;;;2.6;;
28455;SDS011;15682;56.742;38.866;2022-10-13T03:22:53;10.8;;;2.9;;
28455;SDS011;15682;56.742;38.866;2022-10-13T03:24:54;7.2;;;2.6;;
28455;SDS011;15682;56.742;38.866;2022-10-13T03:26:54;7.3;;;3.1;;
28455;SDS011;15682;56.742;38.866;2022-10-13T03:28:54;9.2;;;2.8;;
28455;SDS011;15682;56.742;38.866;2022-10-13T03:31:00;6.5;;;2.6;;
28455;SDS011;15682;56.742;38.866;2022-10-13T03:32:54;7.1;;;2.8;;
28455;SDS011;15682;56.742;38.866;2022-10-13T03:35:06;7.7;;;2.9;;
28455;SDS011;15682;56.742;38.866;2022-10-13T03:36:54;9.1;;;2.7;;
28455;SDS011;15682;56.742;38.866;2022-10-13T03:38:54;6.6;;;2.5;;
28455;SDS011;15682;56.742;38.866;2022-10-13T03:40:54;8.1;;;2.8;;
28455;SDS011;15682;56.742;38.866;2022-10-13T03:42:54;9.3;;;2.9;;
28455;SDS011;15682;56.742;38.866;2022-10-13T03:44:54;7.8;;;2.5;;
28455;SDS011;15682;56.742;38.866;2022-10-13T03:46:54;7.0;;;2.7;;
28455;SDS011;15682;56.742;38.866;2022-10-13T03:48:54;17.3;;;3.3;;
28455;SDS011;15682;56.742;38.866;2022-10-13T03:50:54;22.5;;;3.6;;
28455;SDS011;15682;56.742;38.866;2022-10-13T03:52:54;6.5;;;2.8;;
28455;SDS011;15682;56.742;38.866;2022-10-13T03:54:54;6.6;;;2.7;;
28455;SDS011;15682;56.742;38.866;2022-10-13T03:56:54;5.4;;;2.8;;
28455;SDS011;15682;56.742;38.866;2022-10-13T03:58:56;7.7;;;2.8;;
28455;SDS011;15682;56.742;38.866;2022-10-13T04:00:55;4.8;;;2.4;;
28455;SDS011;15682;56.742;38.866;2022-10-13T04:02:55;8.0;;;2.9;;
28455;SDS011;15682;56.742;38.866;2022-10-13T04:04:55;5.7;;;2.5;;
28455;SDS011;15682;56.742;38.866;2022-10-13T04:06:55;14.9;;;3.3;;
28455;SDS011;15682;56.742;38.866;2022-10-13T04:08:55;9.9;;;3.5;;
28455;SDS011;15682;56.742;38.866;2022-10-13T04:10:58;9.1;;;3.0;;
28455;SDS011;15682;56.742;38.866;2022-10-13T04:12:55;7.0;;;3.0;;
28455;SDS011;15682;56.742;38.866;2022-10-13T04:14:55;6.5;;;3.1;;
28455;SDS011;15682;56.742;38.866;2022-10-13T04:16:55;7.1;;;4.0;;
28455;SDS011;15682;56.742;38.866;2022-10-13T04:18:56;10.6;;;4.8;;
28455;SDS011;15682;56.742;38.866;2022-10-13T04:20:55;10.1;;;3.4;;
28455;SDS011;15682;56.742;38.866;2022-10-13T04:22:55;30.4;;;5.9;;
28455;SDS011;15682;56.742;38.866;2022-10-13T04:24:55;22.5;;;4.3;;
28455;SDS011;15682;56.742;38.866;2022-10-13T04:26:55;28.4;;;5.6;;
28455;SDS011;15682;56.742;38.866;2022-10-13T04:28:56;10.2;;;3.1;;
28455;SDS011;15682;56.742;38.866;2022-10-13T04:30:57;16.0;;;4.1;;
28455;SDS011;15682;56.742;38.866;2022-10-13T04:32:56;13.4;;;3.6;;
28455;SDS011;15682;56.742;38.866;2022-10-13T04:34:56;7.3;;;3.2;;
28455;SDS011;15682;56.742;38.866;2022-10-13T04:36:56;21.7;;;5.0;;
28455;SDS011;15682;56.742;38.866;2022-10-13T04:38:56;12.8;;;3.5;;
28455;SDS011;15682;56.742;38.866;2022-10-13T04:40:56;11.7;;;3.2;;
28455;SDS011;15682;56.742;38.866;2022-10-13T04:42:56;15.1;;;4.0;;
28455;SDS011;15682;56.742;38.866;2022-10-13T04:44:56;24.9;;;5.8;;
28455;SDS011;15682;56.742;38.866;2022-10-13T04:46:56;16.0;;;4.3;;
28455;SDS011;15682;56.742;38.866;2022-10-13T04:48:56;19.3;;;4.5;;
28455;SDS011;15682;56.742;38.866;2022-10-13T04:50:58;22.2;;;5.2;;
28455;SDS011;15682;56.742;38.866;2022-10-13T04:52:57;6.8;;;2.9;;
28455;SDS011;15682;56.742;38.866;2022-10-13T04:54:56;7.8;;;2.9;;
28455;SDS011;15682;56.742;38.866;2022-10-13T04:56:56;9.8;;;3.2;;
28455;SDS011;15682;56.742;38.866;2022-10-13T04:58:56;9.3;;;3.1;;
28455;SDS011;15682;56.742;38.866;2022-10-13T05:00:57;8.5;;;2.8;;
28455;SDS011;15682;56.742;38.866;2022-10-13T05:02:56;7.3;;;2.7;;
28455;SDS011;15682;56.742;38.866;2022-10-13T05:04:57;7.4;;;2.4;;
28455;SDS011;15682;56.742;38.866;2022-10-13T05:06:57;7.6;;;2.4;;
28455;SDS011;15682;56.742;38.866;2022-10-13T05:08:57;9.5;;;2.5;;
28455;SDS011;15682;56.742;38.866;2022-10-13T05:10:57;7.8;;;2.5;;
28455;SDS011;15682;56.742;38.866;2022-10-13T05:12:57;6.1;;;2.5;;
28455;SDS011;15682;56.742;38.866;2022-10-13T05:14:57;8.0;;;2.6;;
28455;SDS011;15682;56.742;38.866;2022-10-13T05:16:57;8.0;;;2.2;;
28455;SDS011;15682;56.742;38.866;2022-10-13T05:19:02;6.5;;;2.6;;
28455;SDS011;15682;56.742;38.866;2022-10-13T05:21:04;6.5;;;2.3;;
28455;SDS011;15682;56.742;38.866;2022-10-13T05:26:07;4.3;;;2.1;;
28455;SDS011;15682;56.742;38.866;2022-10-13T05:26:58;7.9;;;2.1;;
28455;SDS011;15682;56.742;38.866;2022-10-13T05:27:46;7.9;;;2.1;;
28455;SDS011;15682;56.742;38.866;2022-10-13T05:28:58;7.0;;;2.3;;
28455;SDS011;15682;56.742;38.866;2022-10-13T05:31:06;7.8;;;2.5;;
28455;SDS011;15682;56.742;38.866;2022-10-13T05:32:57;5.1;;;2.3;;
28455;SDS011;15682;56.742;38.866;2022-10-13T05:34:57;7.4;;;2.5;;
28455;SDS011;15682;56.742;38.866;2022-10-13T05:36:58;8.0;;;2.5;;
28455;SDS011;15682;56.742;38.866;2022-10-13T05:38:58;7.6;;;2.4;;
28455;SDS011;15682;56.742;38.866;2022-10-13T05:41:00;7.0;;;2.4;;
28455;SDS011;15682;56.742;38.866;2022-10-13T05:42:58;5.2;;;2.4;;
28455;SDS011;15682;56.742;38.866;2022-10-13T05:44:58;6.3;;;2.3;;
28455;SDS011;15682;56.742;38.866;2022-10-13T05:46:58;15.3;;;2.8;;
28455;SDS011;15682;56.742;38.866;2022-10-13T05:48:58;13.9;;;2.7;;
28455;SDS011;15682;56.742;38.866;2022-10-13T05:50:59;9.6;;;2.8;;
28455;SDS011;15682;56.742;38.866;2022-10-13T05:52:58;8.4;;;2.7;;
28455;SDS011;15682;56.742;38.866;2022-10-13T05:54:59;9.0;;;2.5;;
28455;SDS011;15682;56.742;38.866;2022-10-13T05:56:59;5.2;;;2.0;;
28455;SDS011;15682;56.742;38.866;2022-10-13T05:58:59;8.0;;;2.2;;
28455;SDS011;15682;56.742;38.866;2022-10-13T06:00:58;10.8;;;2.5;;
28455;SDS011;15682;56.742;38.866;2022-10-13T06:03:01;7.3;;;2.4;;
28455;SDS011;15682;56.742;38.866;2022-10-13T06:04:59;5.8;;;2.2;;
28455;SDS011;15682;56.742;38.866;2022-10-13T06:06:59;7.8;;;2.3;;
28455;SDS011;15682;56.742;38.866;2022-10-13T06:08:59;6.4;;;2.2;;
28455;SDS011;15682;56.742;38.866;2022-10-13T06:10:59;9.2;;;2.2;;
28455;SDS011;15682;56.742;38.866;2022-10-13T06:12:59;7.8;;;2.4;;
28455;SDS011;15682;56.742;38.866;2022-10-13T06:14:59;5.8;;;2.3;;
28455;SDS011;15682;56.742;38.866;2022-10-13T06:16:59;4.3;;;1.9;;
28455;SDS011;15682;56.742;38.866;2022-10-13T06:18:59;5.1;;;2.2;;
28455;SDS011;15682;56.742;38.866;2022-10-13T06:20:59;6.1;;;2.1;;
28455;SDS011;15682;56.742;38.866;2022-10-13T06:22:59;7.5;;;2.1;;
28455;SDS011;15682;56.742;38.866;2022-10-13T06:24:59;6.7;;;2.2;;
28455;SDS011;15682;56.742;38.866;2022-10-13T06:26:59;10.1;;;2.1;;
28455;SDS011;15682;56.742;38.866;2022-10-13T06:28:59;7.2;;;2.3;;
28455;SDS011;15682;56.742;38.866;2022-10-13T06:31:02;3.9;;;2.0;;
28455;SDS011;15682;56.742;38.866;2022-10-13T06:33:00;6.8;;;2.1;;
28455;SDS011;15682;56.742;38.866;2022-10-13T06:35:00;4.4;;;2.0;;
28455;SDS011;15682;56.742;38.866;2022-10-13T06:37:00;5.7;;;2.1;;
28455;SDS011;15682;56.742;38.866;2022-10-13T06:39:00;7.2;;;2.5;;
28455;SDS011;15682;56.742;38.866;2022-10-13T06:41:00;6.5;;;2.4;;
28455;SDS011;15682;56.742;38.866;2022-10-13T06:43:00;7.0;;;2.2;;
28455;SDS011;15682;56.742;38.866;2022-10-13T06:45:00;7.8;;;2.1;;
28455;SDS011;15682;56.742;38.866;2022-10-13T06:47:00;4.8;;;2.1;;
28455;SDS011;15682;56.742;38.866;2022-10-13T06:49:00;7.3;;;2.4;;
28455;SDS011;15682;56.742;38.866;2022-10-13T06:51:01;6.4;;;2.0;;
28455;SDS011;15682;56.742;38.866;2022-10-13T06:53:00;9.1;;;3.1;;
28455;SDS011;15682;56.742;38.866;2022-10-13T06:55:00;10.4;;;3.7;;
28455;SDS011;15682;56.742;38.866;2022-10-13T06:57:01;12.4;;;4.8;;
28455;SDS011;15682;56.742;38.866;2022-10-13T06:59:01;13.1;;;5.0;;
28455;SDS011;15682;56.742;38.866;2022-10-13T07:01:01;12.2;;;3.3;;
28455;SDS011;15682;56.742;38.866;2022-10-13T07:03:01;10.1;;;2.7;;
28455;SDS011;15682;56.742;38.866;2022-10-13T07:05:01;8.1;;;2.7;;
28455;SDS011;15682;56.742;38.866;2022-10-13T07:07:01;10.5;;;2.9;;
28455;SDS011;15682;56.742;38.866;2022-10-13T07:09:01;11.7;;;2.8;;
28455;SDS011;15682;56.742;38.866;2022-10-13T07:11:05;11.9;;;2.7;;
28455;SDS011;15682;56.742;38.866;2022-10-13T07:13:01;5.2;;;2.3;;
28455;SDS011;15682;56.742;38.866;2022-10-13T07:15:01;11.3;;;2.9;;
28455;SDS011;15682;56.742;38.866;2022-10-13T07:17:01;29.4;;;4.3;;
28455;SDS011;15682;56.742;38.866;2022-10-13T07:19:01;10.2;;;3.3;;
28455;SDS011;15682;56.742;38.866;2022-10-13T07:21:02;7.3;;;2.0;;
28455;SDS011;15682;56.742;38.866;2022-10-13T07:23:01;9.3;;;2.4;;
28455;SDS011;15682;56.742;38.866;2022-10-13T07:25:02;6.7;;;2.3;;
28455;SDS011;15682;56.742;38.866;2022-10-13T07:27:02;6.7;;;2.4;;
28455;SDS011;15682;56.742;38.866;2022-10-13T07:29:02;7.1;;;2.6;;
28455;SDS011;15682;56.742;38.866;2022-10-13T07:31:05;7.2;;;2.5;;
28455;SDS011;15682;56.742;38.866;2022-10-13T07:33:02;8.3;;;2.9;;
28455;SDS011;15682;56.742;38.866;2022-10-13T07:35:02;7.0;;;2.5;;
28455;SDS011;15682;56.742;38.866;2022-10-13T07:37:02;13.1;;;3.0;;
28455;SDS011;15682;56.742;38.866;2022-10-13T07:39:02;5.2;;;2.2;;
28455;SDS011;15682;56.742;38.866;2022-10-13T07:41:02;7.1;;;2.1;;
28455;SDS011;15682;56.742;38.866;2022-10-13T07:43:02;6.6;;;2.4;;
28455;SDS011;15682;56.742;38.866;2022-10-13T07:45:02;7.6;;;2.5;;
28455;SDS011;15682;56.742;38.866;2022-10-13T07:47:02;7.2;;;2.7;;
28455;SDS011;15682;56.742;38.866;2022-10-13T07:49:02;19.9;;;4.1;;
28455;SDS011;15682;56.742;38.866;2022-10-13T07:51:03;11.2;;;3.8;;
28455;SDS011;15682;56.742;38.866;2022-10-13T07:53:02;10.4;;;4.3;;
28455;SDS011;15682;56.742;38.866;2022-10-13T07:55:03;7.2;;;3.1;;
28455;SDS011;15682;56.742;38.866;2022-10-13T07:57:03;4.9;;;2.5;;
28455;SDS011;15682;56.742;38.866;2022-10-13T07:59:03;7.0;;;3.0;;
28455;SDS011;15682;56.742;38.866;2022-10-13T08:01:03;7.8;;;2.8;;
28455;SDS011;15682;56.742;38.866;2022-10-13T08:03:03;7.1;;;2.8;;
28455;SDS011;15682;56.742;38.866;2022-10-13T08:05:03;8.0;;;2.6;;
28455;SDS011;15682;56.742;38.866;2022-10-13T08:07:03;7.8;;;2.7;;
28455;SDS011;15682;56.742;38.866;2022-10-13T08:09:03;7.3;;;2.5;;
28455;SDS011;15682;56.742;38.866;2022-10-13T08:11:04;7.8;;;2.3;;
28455;SDS011;15682;56.742;38.866;2022-10-13T08:13:03;7.9;;;2.6;;
28455;SDS011;15682;56.742;38.866;2022-10-13T08:15:04;6.2;;;1.9;;
28455;SDS011;15682;56.742;38.866;2022-10-13T08:17:03;6.9;;;2.8;;
28455;SDS011;15682;56.742;38.866;2022-10-13T08:19:03;8.4;;;3.0;;
28455;SDS011;15682;56.742;38.866;2022-10-13T08:21:04;6.3;;;2.6;;
28455;SDS011;15682;56.742;38.866;2022-10-13T08:23:04;5.8;;;2.8;;
28455;SDS011;15682;56.742;38.866;2022-10-13T08:25:04;6.2;;;2.8;;
28455;SDS011;15682;56.742;38.866;2022-10-13T08:27:04;7.1;;;2.7;;
28455;SDS011;15682;56.742;38.866;2022-10-13T08:29:04;5.6;;;2.9;;
28455;SDS011;15682;56.742;38.866;2022-10-13T08:31:04;9.4;;;2.5;;
28455;SDS011;15682;56.742;38.866;2022-10-13T08:33:04;6.0;;;2.2;;
28455;SDS011;15682;56.742;38.866;2022-10-13T08:35:04;6.4;;;2.9;;
28455;SDS011;15682;56.742;38.866;2022-10-13T08:37:04;5.9;;;2.1;;
28455;SDS011;15682;56.742;38.866;2022-10-13T08:39:05;4.3;;;2.0;;
28455;SDS011;15682;56.742;38.866;2022-10-13T08:41:10;6.1;;;2.1;;
28455;SDS011;15682;56.742;38.866;2022-10-13T08:43:05;5.5;;;2.0;;
28455;SDS011;15682;56.742;38.866;2022-10-13T08:45:05;3.8;;;2.0;;
28455;SDS011;15682;56.742;38.866;2022-10-13T08:47:05;9.2;;;2.2;;
28455;SDS011;15682;56.742;38.866;2022-10-13T08:49:05;5.0;;;1.9;;
28455;SDS011;15682;56.742;38.866;2022-10-13T08:51:05;7.0;;;2.1;;
28455;SDS011;15682;56.742;38.866;2022-10-13T08:53:08;4.1;;;1.9;;
28455;SDS011;15682;56.742;38.866;2022-10-13T08:55:08;10.5;;;2.6;;
28455;SDS011;15682;56.742;38.866;2022-10-13T08:57:07;4.5;;;2.2;;
28455;SDS011;15682;56.742;38.866;2022-10-13T08:59:08;5.2;;;1.8;;
28455;SDS011;15682;56.742;38.866;2022-10-13T09:01:10;5.9;;;1.9;;
28455;SDS011;15682;56.742;38.866;2022-10-13T09:03:13;6.3;;;1.9;;
28455;SDS011;15682;56.742;38.866;2022-10-13T09:05:09;6.7;;;2.0;;
28455;SDS011;15682;56.742;38.866;2022-10-13T09:07:09;6.7;;;2.1;;
28455;SDS011;15682;56.742;38.866;2022-10-13T09:09:07;6.6;;;2.6;;
28455;SDS011;15682;56.742;38.866;2022-10-13T09:11:07;9.3;;;2.6;;
28455;SDS011;15682;56.742;38.866;2022-10-13T09:13:07;8.2;;;2.6;;
28455;SDS011;15682;56.742;38.866;2022-10-13T09:15:08;7.8;;;2.5;;
28455;SDS011;15682;56.742;38.866;2022-10-13T09:17:12;8.2;;;2.2;;
28455;SDS011;15682;56.742;38.866;2022-10-13T09:19:14;6.6;;;2.2;;
28455;SDS011;15682;56.742;38.866;2022-10-13T09:21:09;5.4;;;2.3;;
28455;SDS011;15682;56.742;38.866;2022-10-13T09:23:14;8.6;;;2.2;;
28455;SDS011;15682;56.742;38.866;2022-10-13T09:25:08;15.1;;;3.2;;
28455;SDS011;15682;56.742;38.866;2022-10-13T09:27:10;8.4;;;2.5;;
28455;SDS011;15682;56.742;38.866;2022-10-13T09:29:07;9.4;;;2.9;;
28455;SDS011;15682;56.742;38.866;2022-10-13T09:31:12;11.8;;;2.5;;
28455;SDS011;15682;56.742;38.866;2022-10-13T09:35:11;87.9;;;16.4;;
28455;SDS011;15682;56.742;38.866;2022-10-13T09:37:15;76.2;;;17.0;;
28455;SDS011;15682;56.742;38.866;2022-10-13T09:39:10;36.4;;;10.1;;
28455;SDS011;15682;56.742;38.866;2022-10-13T09:41:15;11.4;;;3.5;;
28455;SDS011;15682;56.742;38.866;2022-10-13T09:43:16;11.6;;;3.5;;
28455;SDS011;15682;56.742;38.866;2022-10-13T09:45:11;20.4;;;7.5;;
28455;SDS011;15682;56.742;38.866;2022-10-13T09:47:13;15.2;;;5.0;;
28455;SDS011;15682;56.742;38.866;2022-10-13T09:49:20;13.0;;;4.5;;
28455;SDS011;15682;56.742;38.866;2022-10-13T09:51:09;12.3;;;3.5;;
28455;SDS011;15682;56.742;38.866;2022-10-13T09:53:09;11.9;;;3.5;;
28455;SDS011;15682;56.742;38.866;2022-10-13T09:55:24;8.4;;;3.2;;
28455;SDS011;15682;56.742;38.866;2022-10-13T09:57:10;11.2;;;2.7;;
28455;SDS011;15682;56.742;38.866;2022-10-13T09:59:12;11.2;;;2.4;;
28455;SDS011;15682;56.742;38.866;2022-10-13T10:01:09;9.0;;;3.0;;
28455;SDS011;15682;56.742;38.866;2022-10-13T10:03:09;8.6;;;2.4;;
28455;SDS011;15682;56.742;38.866;2022-10-13T10:05:13;12.1;;;2.5;;
28455;SDS011;15682;56.742;38.866;2022-10-13T10:07:09;12.7;;;2.8;;
28455;SDS011;15682;56.742;38.866;2022-10-13T10:09:14;7.8;;;2.2;;
28455;SDS011;15682;56.742;38.866;2022-10-13T10:11:10;7.4;;;2.3;;
28455;SDS011;15682;56.742;38.866;2022-10-13T10:13:09;8.0;;;2.3;;
28455;SDS011;15682;56.742;38.866;2022-10-13T10:15:15;8.8;;;2.2;;
28455;SDS011;15682;56.742;38.866;2022-10-13T10:17:13;20.1;;;3.5;;
28455;SDS011;15682;56.742;38.866;2022-10-13T10:19:11;8.3;;;2.0;;
28455;SDS011;15682;56.742;38.866;2022-10-13T10:21:11;15.2;;;3.6;;
28455;SDS011;15682;56.742;38.866;2022-10-13T10:23:11;7.7;;;2.1;;
28455;SDS011;15682;56.742;38.866;2022-10-13T10:25:15;11.2;;;3.2;;
28455;SDS011;15682;56.742;38.866;2022-10-13T10:27:10;7.6;;;2.4;;
28455;SDS011;15682;56.742;38.866;2022-10-13T10:29:18;4.9;;;1.9;;
28455;SDS011;15682;56.742;38.866;2022-10-13T10:31:14;17.8;;;2.3;;
28455;SDS011;15682;56.742;38.866;2022-10-13T10:33:10;5.4;;;2.1;;
28455;SDS011;15682;56.742;38.866;2022-10-13T10:35:11;7.0;;;2.5;;
28455;SDS011;15682;56.742;38.866;2022-10-13T10:37:13;3.9;;;1.9;;
28455;SDS011;15682;56.742;38.866;2022-10-13T10:39:14;5.4;;;1.9;;
28455;SDS011;15682;56.742;38.866;2022-10-13T10:41:11;4.1;;;2.0;;
28455;SDS011;15682;56.742;38.866;2022-10-13T10:45:13;8.0;;;2.1;;
28455;SDS011;15682;56.742;38.866;2022-10-13T10:47:12;7.0;;;2.0;;
28455;SDS011;15682;56.742;38.866;2022-10-13T10:49:11;6.8;;;2.1;;
28455;SDS011;15682;56.742;38.866;2022-10-13T10:51:10;6.3;;;2.2;;
28455;SDS011;15682;56.742;38.866;2022-10-13T10:53:12;6.0;;;2.1;;
28455;SDS011;15682;56.742;38.866;2022-10-13T10:55:13;6.9;;;2.3;;
28455;SDS011;15682;56.742;38.866;2022-10-13T10:57:11;6.0;;;2.3;;
28455;SDS011;15682;56.742;38.866;2022-10-13T10:59:15;5.9;;;2.6;;
28455;SDS011;15682;56.742;38.866;2022-10-13T11:01:18;7.1;;;2.5;;
28455;SDS011;15682;56.742;38.866;2022-10-13T11:03:15;8.9;;;3.5;;
28455;SDS011;15682;56.742;38.866;2022-10-13T11:05:11;7.0;;;2.8;;
28455;SDS011;15682;56.742;38.866;2022-10-13T11:07:12;8.3;;;3.0;;
28455;SDS011;15682;56.742;38.866;2022-10-13T11:09:11;7.8;;;3.1;;
28455;SDS011;15682;56.742;38.866;2022-10-13T11:13:14;6.5;;;3.3;;
28455;SDS011;15682;56.742;38.866;2022-10-13T11:15:12;6.2;;;3.2;;
28455;SDS011;15682;56.742;38.866;2022-10-13T11:17:16;7.5;;;2.8;;
28455;SDS011;15682;56.742;38.866;2022-10-13T11:19:27;5.0;;;2.5;;
28455;SDS011;15682;56.742;38.866;2022-10-13T11:21:11;7.1;;;2.7;;
28455;SDS011;15682;56.742;38.866;2022-10-13T11:27:17;13.3;;;3.0;;
28455;SDS011;15682;56.742;38.866;2022-10-13T11:29:15;5.2;;;2.3;;
28455;SDS011;15682;56.742;38.866;2022-10-13T11:35:17;6.2;;;2.5;;
28455;SDS011;15682;56.742;38.866;2022-10-13T11:37:12;4.7;;;2.5;;
28455;SDS011;15682;56.742;38.866;2022-10-13T11:41:12;5.7;;;2.7;;
28455;SDS011;15682;56.742;38.866;2022-10-13T11:43:16;7.8;;;2.9;;
28455;SDS011;15682;56.742;38.866;2022-10-13T11:45:14;9.9;;;2.8;;
28455;SDS011;15682;56.742;38.866;2022-10-13T11:47:14;8.0;;;2.8;;
28455;SDS011;15682;56.742;38.866;2022-10-13T11:49:24;4.5;;;3.0;;
28455;SDS011;15682;56.742;38.866;2022-10-13T11:51:14;4.7;;;2.8;;
28455;SDS011;15682;56.742;38.866;2022-10-13T11:53:14;6.1;;;3.0;;
28455;SDS011;15682;56.742;38.866;2022-10-13T11:55:13;6.0;;;3.0;;
28455;SDS011;15682;56.742;38.866;2022-10-13T11:57:20;5.1;;;3.0;;
28455;SDS011;15682;56.742;38.866;2022-10-13T11:59:20;8.1;;;3.1;;
28455;SDS011;15682;56.742;38.866;2022-10-13T12:01:13;6.2;;;2.9;;
28455;SDS011;15682;56.742;38.866;2022-10-13T12:03:18;3.9;;;2.6;;
28455;SDS011;15682;56.742;38.866;2022-10-13T12:05:18;7.7;;;3.3;;
28455;SDS011;15682;56.742;38.866;2022-10-13T12:07:13;6.5;;;3.4;;
28455;SDS011;15682;56.742;38.866;2022-10-13T12:09:14;7.1;;;3.2;;
28455;SDS011;15682;56.742;38.866;2022-10-13T12:11:14;8.9;;;5.1;;
28455;SDS011;15682;56.742;38.866;2022-10-13T12:13:18;10.9;;;5.2;;
28455;SDS011;15682;56.742;38.866;2022-10-13T12:15:24;9.8;;;4.6;;
28455;SDS011;15682;56.742;38.866;2022-10-13T12:17:20;8.5;;;3.8;;
28455;SDS011;15682;56.742;38.866;2022-10-13T12:19:17;8.0;;;3.0;;
28455;SDS011;15682;56.742;38.866;2022-10-13T12:21:13;8.9;;;2.4;;
28455;SDS011;15682;56.742;38.866;2022-10-13T12:23:14;9.4;;;2.7;;
28455;SDS011;15682;56.742;38.866;2022-10-13T12:25:14;5.5;;;2.7;;
28455;SDS011;15682;56.742;38.866;2022-10-13T12:42:28;5.4;;;2.8;;
28455;SDS011;15682;56.742;38.866;2022-10-13T12:43:14;5.4;;;2.5;;